Time;durP1;ratioP1;P1;durP2;ratioP2;P2;SDS_P1;SDS_P2;PMS_P1;PMS_P2;Temp;Humidity;BMP_temperature;BMP_pressure;BME280_temperature;BME280_humidity;BME280_pressure;Samples;Min_cycle;Max_cycle;Signal;HPM_P1;HPM_P2
2023/09/06 00:02:10;;;;;;;2.83;2.25;;;24.30;67.60;;;;;;4968297;28;87074;-86
2023/09/06 00:04:35;;;;;;;2.10;1.90;;;24.30;67.60;;;;;;4985403;28;87378;-85
2023/09/06 00:07:03;;;;;;;3.65;2.30;;;24.30;67.60;;;;;;4987477;28;89199;-86
2023/09/06 00:09:28;;;;;;;4.80;2.35;;;24.30;67.60;;;;;;4985117;28;91005;-84
2023/09/06 00:11:54;;;;;;;6.25;2.45;;;24.30;67.30;;;;;;4991568;28;87915;-85
2023/09/06 00:14:20;;;;;;;2.20;2.00;;;24.20;67.40;;;;;;4970660;28;89410;-86
2023/09/06 00:16:46;;;;;;;2.40;2.20;;;24.30;67.50;;;;;;4987965;28;88094;-86
2023/09/06 00:19:17;;;;;;;4.28;3.00;;;24.30;67.50;;;;;;4989198;28;87621;-85
2023/09/06 00:21:43;;;;;;;3.13;2.20;;;24.30;67.70;;;;;;4988750;28;87903;-86
2023/09/06 00:24:12;;;;;;;4.40;2.35;;;24.20;67.30;;;;;;4987949;28;87498;-85
2023/09/06 00:26:39;;;;;;;3.83;2.88;;;24.30;67.70;;;;;;4989536;28;88016;-85
2023/09/06 00:29:08;;;;;;;3.78;2.55;;;24.20;67.50;;;;;;4970782;28;88859;-85
2023/09/06 00:31:34;;;;;;;2.65;2.38;;;24.30;67.60;;;;;;4989908;28;88348;-85
2023/09/06 00:34:00;;;;;;;2.60;2.08;;;24.20;67.60;;;;;;4991032;28;87103;-85
2023/09/06 00:36:29;;;;;;;2.65;2.45;;;24.20;67.50;;;;;;4987647;28;90268;-86
2023/09/06 00:38:57;;;;;;;3.50;2.22;;;24.20;67.50;;;;;;4989099;28;87763;-85
2023/09/06 00:41:24;;;;;;;4.63;3.00;;;24.20;67.30;;;;;;4986370;28;87707;-85
2023/09/06 00:43:49;;;;;;;3.80;2.85;;;24.20;67.40;;;;;;4969037;28;89614;-85
2023/09/06 00:46:16;;;;;;;2.78;2.33;;;24.20;67.30;;;;;;4990697;28;88665;-86
2023/09/06 00:48:41;;;;;;;4.75;3.20;;;24.20;67.60;;;;;;4988821;28;88953;-86
2023/09/06 00:51:08;;;;;;;3.17;2.58;;;24.20;67.70;;;;;;4987656;28;88278;-85
2023/09/06 00:53:34;;;;;;;3.05;2.67;;;24.20;67.50;;;;;;4991510;28;87292;-85
2023/09/06 00:56:04;;;;;;;3.10;2.45;;;24.20;67.60;;;;;;4988530;28;89111;-86
2023/09/06 00:58:30;;;;;;;3.13;2.65;;;24.20;67.70;;;;;;4969461;28;92649;-86
2023/09/06 01:00:57;;;;;;;3.28;2.58;;;24.20;67.60;;;;;;4991339;28;87384;-85
2023/09/06 01:03:23;;;;;;;3.38;2.70;;;24.20;67.50;;;;;;4990402;28;88273;-85
2023/09/06 01:06:03;;;;;;;3.65;2.78;;;24.20;67.60;;;;;;4990663;28;88119;-86
2023/09/06 01:08:46;;;;;;;3.45;2.20;;;24.20;67.70;;;;;;4988199;28;87766;-86
2023/09/06 01:11:22;;;;;;;3.85;2.55;;;24.20;67.70;;;;;;4988584;28;87569;-85
2023/09/06 01:13:52;;;;;;;4.38;2.70;;;24.20;67.40;;;;;;4989681;28;87738;-85
2023/09/06 01:16:42;;;;;;;3.33;2.67;;;24.20;67.50;;;;;;4987983;28;88128;-86
2023/09/06 01:19:11;;;;;;;2.67;2.20;;;24.10;67.60;;;;;;4988984;28;88388;-87
2023/09/06 01:21:47;;;;;;;3.25;2.10;;;24.10;67.80;;;;;;4987953;28;88995;-86
2023/09/06 01:24:15;;;;;;;2.72;2.20;;;24.20;67.60;;;;;;4990520;28;87549;-86
2023/09/06 01:26:41;;;;;;;2.97;2.50;;;24.10;67.60;;;;;;4989334;28;88356;-86
2023/09/06 01:29:07;;;;;;;3.85;2.50;;;24.10;67.60;;;;;;4987838;28;87560;-86
2023/09/06 01:31:33;;;;;;;3.20;2.53;;;24.10;67.60;;;;;;4989594;28;88159;-86
2023/09/06 01:33:59;;;;;;;3.25;2.38;;;24.10;67.60;;;;;;4989487;28;87339;-86
2023/09/06 01:36:25;;;;;;;4.15;2.85;;;24.10;67.50;;;;;;4971348;28;90383;-86
2023/09/06 01:38:51;;;;;;;2.67;2.35;;;24.10;67.50;;;;;;4990091;28;87018;-87
2023/09/06 01:41:18;;;;;;;3.30;2.20;;;24.10;67.50;;;;;;4989561;28;87814;-86
2023/09/06 01:43:44;;;;;;;3.53;2.70;;;24.10;67.40;;;;;;4988534;28;87198;-85
2023/09/06 01:46:09;;;;;;;2.60;2.20;;;24.10;67.40;;;;;;4990267;28;87911;-86
2023/09/06 01:48:36;;;;;;;3.30;1.92;;;24.10;67.40;;;;;;4987743;28;88099;-85
2023/09/06 01:51:03;;;;;;;2.58;2.33;;;24.10;67.40;;;;;;4989258;28;87189;-87
2023/09/06 01:53:29;;;;;;;4.10;2.55;;;24.10;67.60;;;;;;4987637;28;87405;-85
2023/09/06 01:55:55;;;;;;;3.35;2.63;;;24.10;67.20;;;;;;4987685;28;88098;-85
2023/09/06 01:58:20;;;;;;;2.30;2.10;;;24.10;67.30;;;;;;4987933;28;87231;-86
2023/09/06 02:00:46;;;;;;;3.05;2.25;;;24.10;67.40;;;;;;4988400;28;87752;-87
2023/09/06 02:03:15;;;;;;;3.40;2.38;;;24.10;67.30;;;;;;4989186;28;87304;-85
2023/09/06 02:05:41;;;;;;;2.83;2.40;;;24.10;67.30;;;;;;4987986;28;88143;-86
2023/09/06 02:08:07;;;;;;;2.75;2.05;;;24.10;67.30;;;;;;4988289;28;88489;-87
2023/09/06 02:10:33;;;;;;;2.40;2.20;;;24.10;67.30;;;;;;4986715;28;89564;-86
2023/09/06 02:12:59;;;;;;;3.72;2.25;;;24.10;67.30;;;;;;4970396;28;89951;-85
2023/09/06 02:15:25;;;;;;;2.33;1.92;;;24.10;67.20;;;;;;4968581;28;89475;-86
2023/09/06 02:17:52;;;;;;;3.63;2.20;;;24.10;67.30;;;;;;4970386;28;90890;-86
2023/09/06 02:20:20;;;;;;;2.20;2.00;;;24.10;67.10;;;;;;4988417;28;87029;-85
2023/09/06 02:22:56;;;;;;;2.17;1.97;;;24.10;67.00;;;;;;4988191;28;87556;-86
2023/09/06 02:25:25;;;;;;;3.25;2.28;;;24.10;67.40;;;;;;4969072;28;90423;-85
2023/09/06 02:27:51;;;;;;;3.05;1.90;;;24.10;67.00;;;;;;4971541;28;90200;-86
2023/09/06 02:30:17;;;;;;;3.25;2.10;;;24.10;67.00;;;;;;4987938;28;87972;-86
2023/09/06 02:32:43;;;;;;;3.25;2.30;;;24.10;67.10;;;;;;4988064;28;87375;-86
2023/09/06 02:35:09;;;;;;;3.35;2.53;;;24.10;67.10;;;;;;4971346;28;90041;-86
2023/09/06 02:37:35;;;;;;;2.67;2.10;;;24.10;67.10;;;;;;4969575;28;90669;-86
2023/09/06 02:40:02;;;;;;;3.08;2.40;;;24.10;67.10;;;;;;4989471;28;87670;-84
2023/09/06 02:42:29;;;;;;;2.00;1.90;;;24.10;67.00;;;;;;4985846;28;87734;-87
2023/09/06 02:44:54;;;;;;;2.83;2.08;;;24.10;66.90;;;;;;4986524;28;88600;-87
2023/09/06 02:47:25;;;;;;;3.15;2.25;;;24.10;66.90;;;;;;4986964;28;87986;-85
2023/09/06 02:49:55;;;;;;;4.18;2.15;;;24.10;67.10;;;;;;4987270;28;88310;-85
2023/09/06 02:52:28;;;;;;;2.15;1.92;;;24.00;67.00;;;;;;4987263;28;87029;-85
2023/09/06 02:54:58;;;;;;;2.55;2.13;;;24.00;67.00;;;;;;4987800;28;88136;-86
2023/09/06 02:57:28;;;;;;;2.53;2.17;;;24.00;67.10;;;;;;4986552;28;88196;-85
2023/09/06 02:59:54;;;;;;;3.05;2.05;;;24.00;66.80;;;;;;4985743;28;88535;-85
2023/09/06 03:02:21;;;;;;;2.20;2.00;;;24.00;67.10;;;;;;4968000;28;88275;-86
2023/09/06 03:04:48;;;;;;;3.55;2.40;;;24.00;66.90;;;;;;4970668;28;89651;-87
2023/09/06 03:07:15;;;;;;;2.42;2.22;;;24.00;67.10;;;;;;4989370;28;87966;-86
2023/09/06 03:09:40;;;;;;;3.53;2.30;;;24.00;67.60;;;;;;4986857;28;87652;-85
2023/09/06 03:12:12;;;;;;;2.67;2.22;;;24.00;66.90;;;;;;4970120;28;88967;-87
2023/09/06 03:14:43;;;;;;;3.22;2.05;;;24.00;66.90;;;;;;4988268;28;87200;-85
2023/09/06 03:17:09;;;;;;;2.63;2.15;;;24.00;66.90;;;;;;4988757;28;87759;-86
2023/09/06 03:19:41;;;;;;;2.22;2.03;;;24.00;66.80;;;;;;4987890;28;87665;-85
2023/09/06 03:22:09;;;;;;;2.25;2.05;;;24.00;66.90;;;;;;4989699;28;87593;-86
2023/09/06 03:24:40;;;;;;;3.42;2.15;;;24.00;66.90;;;;;;4984454;28;89665;-85
2023/09/06 03:27:07;;;;;;;2.40;2.05;;;24.00;67.00;;;;;;4987914;28;88897;-85
2023/09/06 03:29:36;;;;;;;2.05;1.73;;;24.00;66.80;;;;;;4968536;28;88238;-82
2023/09/06 03:32:09;;;;;;;2.42;1.90;;;24.00;66.80;;;;;;4988684;28;87312;-86
2023/09/06 03:34:36;;;;;;;2.42;2.13;;;24.00;66.90;;;;;;4986791;28;87962;-85
2023/09/06 03:37:05;;;;;;;2.53;2.00;;;24.00;66.70;;;;;;4987590;28;87379;-86
2023/09/06 03:39:37;;;;;;;;;;;24.00;66.70;;;;;;4992631;28;86876;-86
2023/09/06 03:42:08;;;;;;;3.60;2.28;;;24.00;66.60;;;;;;4971416;28;89676;-85
2023/09/06 03:44:35;;;;;;;2.38;2.10;;;24.00;66.60;;;;;;4968883;28;90777;-87
2023/09/06 03:47:04;;;;;;;2.35;1.85;;;24.00;66.70;;;;;;4990658;28;87994;-86
2023/09/06 03:49:29;;;;;;;2.35;2.05;;;24.00;66.80;;;;;;4990713;28;88659;-88
2023/09/06 03:51:55;;;;;;;4.78;2.42;;;24.00;66.60;;;;;;4974625;28;89430;-87
2023/09/06 03:54:22;;;;;;;2.10;1.90;;;24.00;66.70;;;;;;4990317;28;88086;-86
2023/09/06 03:56:48;;;;;;;2.58;2.03;;;24.00;67.00;;;;;;4991707;28;87916;-87
2023/09/06 03:59:13;;;;;;;2.83;1.92;;;24.00;66.60;;;;;;4991005;28;86988;-84
2023/09/06 04:01:39;;;;;;;3.60;2.22;;;24.00;66.60;;;;;;4990283;28;87678;-85
2023/09/06 04:04:07;;;;;;;2.28;2.03;;;24.00;66.70;;;;;;4991098;28;87744;-87
2023/09/06 04:06:34;;;;;;;3.30;1.93;;;24.00;66.50;;;;;;4991364;28;87758;-85
2023/09/06 04:08:59;;;;;;;3.20;1.88;;;24.00;67.00;;;;;;4990577;28;87509;-86
2023/09/06 04:11:25;;;;;;;2.10;1.80;;;23.90;66.40;;;;;;4971611;28;90013;-86
2023/09/06 04:13:55;;;;;;;2.25;2.03;;;23.90;66.70;;;;;;4971714;28;90541;-85
2023/09/06 04:16:22;;;;;;;2.22;1.70;;;23.90;66.50;;;;;;4992212;28;89175;-87
2023/09/06 04:18:48;;;;;;;4.07;2.10;;;23.90;66.60;;;;;;4990556;28;87578;-86
2023/09/06 04:21:13;;;;;;;2.15;1.60;;;23.90;66.40;;;;;;4986904;28;89577;-86
2023/09/06 04:23:40;;;;;;;2.63;2.03;;;23.90;66.60;;;;;;4971697;28;91182;-86
2023/09/06 04:26:06;;;;;;;1.80;1.70;;;23.90;66.40;;;;;;4990449;28;87284;-85
2023/09/06 04:28:31;;;;;;;2.30;2.10;;;23.90;66.40;;;;;;4970799;28;87554;-86
2023/09/06 04:30:58;;;;;;;2.63;1.98;;;23.90;66.30;;;;;;4972129;28;89441;-85
2023/09/06 04:33:24;;;;;;;2.20;2.00;;;23.90;66.30;;;;;;4973081;28;89160;-86
2023/09/06 04:35:50;;;;;;;2.15;1.88;;;23.90;66.30;;;;;;4990299;28;87754;-87
2023/09/06 04:38:19;;;;;;;2.38;1.70;;;23.90;66.50;;;;;;4989726;28;88023;-86
2023/09/06 04:40:47;;;;;;;3.05;1.90;;;23.90;66.30;;;;;;4992757;28;87560;-85
2023/09/06 04:43:13;;;;;;;2.28;2.08;;;23.90;66.30;;;;;;4988481;28;90794;-85
2023/09/06 04:45:39;;;;;;;2.08;1.70;;;23.90;66.40;;;;;;4990209;28;87410;-87
2023/09/06 04:48:11;;;;;;;1.95;1.75;;;23.90;66.40;;;;;;4972153;28;87601;-87
2023/09/06 04:50:38;;;;;;;2.13;1.83;;;23.90;66.40;;;;;;4990947;28;87498;-86
2023/09/06 04:53:04;;;;;;;2.80;1.92;;;23.90;66.40;;;;;;4987744;28;91258;-86
2023/09/06 04:55:35;;;;;;;2.28;2.08;;;23.90;67.10;;;;;;4971745;28;87387;-86
2023/09/06 04:58:04;;;;;;;2.72;1.95;;;23.90;66.30;;;;;;4990189;28;92457;-86
2023/09/06 05:00:32;;;;;;;2.42;1.80;;;23.90;66.30;;;;;;4971407;28;88749;-85
2023/09/06 05:02:59;;;;;;;3.43;2.50;;;23.90;66.50;;;;;;4989082;28;88702;-86
2023/09/06 05:05:25;;;;;;;2.33;1.88;;;23.90;66.40;;;;;;4989947;28;88535;-86
2023/09/06 05:07:51;;;;;;;1.70;1.60;;;23.80;66.20;;;;;;4991047;28;88013;-85
2023/09/06 05:10:17;;;;;;;2.05;1.85;;;23.80;66.20;;;;;;4990978;28;87793;-86
2023/09/06 05:12:45;;;;;;;2.58;2.00;;;23.80;66.10;;;;;;4972043;28;95084;-86
2023/09/06 05:15:12;;;;;;;1.80;1.70;;;23.90;66.20;;;;;;4989356;28;87480;-86
2023/09/06 05:17:39;;;;;;;2.08;1.50;;;23.80;66.10;;;;;;4990078;28;88046;-85
2023/09/06 05:20:27;;;;;;;2.15;1.80;;;23.80;66.30;;;;;;4988848;28;87177;-87
2023/09/06 05:22:58;;;;;;;2.83;1.98;;;23.80;65.90;;;;;;4989596;28;88231;-86
2023/09/06 05:25:24;;;;;;;2.20;1.70;;;23.80;65.80;;;;;;4989469;28;87681;-86
2023/09/06 05:27:51;;;;;;;2.22;1.60;;;23.80;66.00;;;;;;4973013;28;88771;-87
2023/09/06 05:30:17;;;;;;;1.90;1.70;;;23.80;66.10;;;;;;4988580;28;87806;-87
2023/09/06 05:32:42;;;;;;;2.00;1.75;;;23.80;65.80;;;;;;4974125;28;88781;-86
2023/09/06 05:35:09;;;;;;;5.75;2.50;;;23.80;65.70;;;;;;4974689;28;87535;-87
2023/09/06 05:37:34;;;;;;;2.15;1.70;;;23.80;65.20;;;;;;4988003;28;87640;-86
2023/09/06 05:40:03;;;;;;;4.72;2.10;;;23.80;65.40;;;;;;4989707;28;87102;-87
2023/09/06 05:42:29;;;;;;;2.22;2.00;;;23.90;65.40;;;;;;4989245;28;87827;-85
2023/09/06 05:44:56;;;;;;;1.80;1.55;;;23.90;65.50;;;;;;4990886;28;87932;-86
2023/09/06 05:47:21;;;;;;;1.98;1.58;;;23.90;64.90;;;;;;4987991;28;87934;-86
2023/09/06 05:49:51;;;;;;;2.50;2.03;;;23.90;65.10;;;;;;4969315;28;87864;-86
2023/09/06 05:52:17;;;;;;;1.83;1.55;;;23.90;64.50;;;;;;4970651;28;91340;-86
2023/09/06 05:54:43;;;;;;;4.63;1.95;;;23.90;65.40;;;;;;4987846;28;91733;-87
2023/09/06 05:57:09;;;;;;;1.73;1.60;;;23.90;65.30;;;;;;4988179;28;88115;-85
2023/09/06 05:59:35;;;;;;;2.78;1.65;;;23.90;65.60;;;;;;4988922;28;88684;-85
2023/09/06 06:02:00;;;;;;;3.78;1.75;;;23.90;65.60;;;;;;4989122;28;87643;-86
2023/09/06 06:04:26;;;;;;;2.10;1.85;;;23.90;65.60;;;;;;4988098;28;88374;-85
2023/09/06 06:06:52;;;;;;;2.50;1.85;;;23.90;65.60;;;;;;4972529;28;87625;-85
2023/09/06 06:09:21;;;;;;;3.58;2.00;;;23.90;65.70;;;;;;4970086;28;87693;-84
2023/09/06 06:11:47;;;;;;;2.30;1.58;;;23.90;65.60;;;;;;4988659;28;87276;-85
2023/09/06 06:14:13;;;;;;;2.20;1.92;;;23.90;65.70;;;;;;4986076;28;87517;-86
2023/09/06 06:16:39;;;;;;;3.47;1.90;;;23.90;65.70;;;;;;4986921;28;88462;-86
2023/09/06 06:19:04;;;;;;;3.33;1.80;;;24.00;65.70;;;;;;4970908;28;89392;-83
2023/09/06 06:21:31;;;;;;;11.48;3.40;;;24.00;65.00;;;;;;4967789;28;91043;-83
2023/09/06 06:23:57;;;;;;;20.13;3.45;;;24.00;61.20;;;;;;4985363;28;89193;-83
2023/09/06 06:26:23;;;;;;;13.25;3.40;;;24.00;59.20;;;;;;4969264;28;87759;-85
2023/09/06 06:28:49;;;;;;;13.65;2.90;;;23.80;58.90;;;;;;4989072;28;87800;-87
2023/09/06 06:31:15;;;;;;;21.65;3.92;;;23.80;59.20;;;;;;4988068;28;88026;-86
2023/09/06 06:33:42;;;;;;;29.05;5.10;;;23.70;59.20;;;;;;4988635;28;87770;-84
2023/09/06 06:36:08;;;;;;;35.38;5.28;;;23.70;59.40;;;;;;4988414;28;88297;-85
2023/09/06 06:38:33;;;;;;;26.95;4.57;;;23.80;59.60;;;;;;4988800;28;86977;-85
2023/09/06 06:40:59;;;;;;;27.05;4.57;;;23.80;59.40;;;;;;4992410;28;88812;-83
2023/09/06 06:43:26;;;;;;;18.27;3.60;;;23.80;59.60;;;;;;4987285;28;88780;-87
2023/09/06 06:45:55;;;;;;;18.33;3.42;;;23.80;59.90;;;;;;4988959;28;87936;-84
2023/09/06 06:48:21;;;;;;;19.73;3.72;;;23.80;60.10;;;;;;4988559;28;87910;-84
2023/09/06 06:50:47;;;;;;;7.53;3.00;;;23.90;60.30;;;;;;4987063;28;92406;-85
2023/09/06 06:53:15;;;;;;;9.02;2.30;;;23.90;60.40;;;;;;4988658;28;88360;-86
2023/09/06 06:55:42;;;;;;;9.00;2.58;;;23.90;60.70;;;;;;4988183;28;87448;-85
2023/09/06 06:58:07;;;;;;;8.57;2.20;;;23.90;60.90;;;;;;4971324;28;88248;-85
2023/09/06 07:00:35;;;;;;;8.25;3.03;;;23.90;61.10;;;;;;4965354;28;90098;-83
2023/09/06 07:03:01;;;;;;;6.60;2.65;;;23.90;61.40;;;;;;4970924;28;90224;-84
2023/09/06 07:05:27;;;;;;;5.05;2.63;;;23.90;61.10;;;;;;4968236;28;88999;-86
2023/09/06 07:07:54;;;;;;;4.60;2.58;;;23.90;60.80;;;;;;4987206;28;90181;-84
2023/09/06 07:10:21;;;;;;;5.88;2.50;;;24.00;60.90;;;;;;4987864;28;87538;-89
2023/09/06 07:12:48;;;;;;;8.38;2.55;;;24.00;61.10;;;;;;4989509;28;87701;-87
2023/09/06 07:15:14;;;;;;;9.00;2.47;;;24.00;61.30;;;;;;4986829;28;88489;-85
2023/09/06 07:17:41;;;;;;;7.68;2.30;;;24.00;61.10;;;;;;4986981;28;87303;-84
2023/09/06 07:20:07;;;;;;;6.20;2.30;;;24.10;61.10;;;;;;4989945;28;87712;-85
2023/09/06 07:22:33;;;;;;;11.50;2.90;;;24.10;61.40;;;;;;4985600;28;91076;-84
2023/09/06 07:24:59;;;;;;;8.23;2.75;;;24.10;61.70;;;;;;4989852;28;87394;-85
2023/09/06 07:27:27;;;;;;;3.90;2.38;;;24.00;62.10;;;;;;4989157;28;88754;-84
2023/09/06 07:29:54;;;;;;;150.93;22.55;;;24.00;62.50;;;;;;4988805;28;88893;-84
2023/09/06 07:32:19;;;;;;;76.82;13.75;;;24.10;62.30;;;;;;4988154;28;89679;-82
2023/09/06 07:34:48;;;;;;;28.55;6.72;;;24.10;62.60;;;;;;4989656;28;87827;-83
2023/09/06 07:37:13;;;;;;;24.88;4.88;;;24.20;61.90;;;;;;4989423;28;87758;-83
2023/09/06 07:39:39;;;;;;;12.70;4.03;;;24.30;62.10;;;;;;4989258;28;88356;-83
2023/09/06 07:42:05;;;;;;;8.48;2.80;;;24.30;62.50;;;;;;4967703;28;90369;-84
2023/09/06 07:44:32;;;;;;;10.65;2.85;;;24.20;62.30;;;;;;4952837;28;89271;-83
2023/09/06 07:47:02;;;;;;;4.80;2.70;;;24.30;62.10;;;;;;4966414;28;91161;-83
2023/09/06 07:49:31;;;;;;;5.90;2.50;;;24.20;62.50;;;;;;4976940;28;90568;-84
2023/09/06 07:51:57;;;;;;;8.80;2.65;;;24.20;63.10;;;;;;4972323;28;90739;-83
2023/09/06 07:54:23;;;;;;;8.65;2.70;;;24.10;64.10;;;;;;4988985;28;88271;-84
2023/09/06 07:56:49;;;;;;;6.78;2.88;;;24.10;63.70;;;;;;4990918;28;88186;-83
2023/09/06 07:59:20;;;;;;;7.30;2.15;;;24.10;63.70;;;;;;4980816;28;88741;-83
2023/09/06 08:01:46;;;;;;;8.98;2.65;;;24.20;63.70;;;;;;4986374;28;87280;-85
2023/09/06 08:04:12;;;;;;;11.77;3.03;;;24.20;63.70;;;;;;4991385;28;87634;-84
2023/09/06 08:06:37;;;;;;;6.28;2.40;;;24.10;63.70;;;;;;4990917;28;87209;-84
2023/09/06 08:09:03;;;;;;;6.75;2.80;;;24.10;63.70;;;;;;4991377;28;88745;-88
2023/09/06 08:11:29;;;;;;;4.85;2.22;;;24.10;63.70;;;;;;4972447;28;88151;-85
2023/09/06 08:13:54;;;;;;;7.85;2.75;;;24.10;64.20;;;;;;4991963;28;87380;-84
2023/09/06 08:16:20;;;;;;;6.95;2.50;;;24.10;64.10;;;;;;4972412;28;87875;-83
2023/09/06 08:18:46;;;;;;;7.68;2.75;;;24.10;64.20;;;;;;4990288;28;88916;-84
2023/09/06 08:21:15;;;;;;;5.30;2.28;;;24.20;64.40;;;;;;4990307;28;87712;-83
2023/09/06 08:23:41;;;;;;;6.43;2.22;;;24.20;64.50;;;;;;4991718;28;87718;-84
2023/09/06 08:26:07;;;;;;;7.97;2.78;;;24.20;64.30;;;;;;4990883;28;87811;-85
2023/09/06 08:28:33;;;;;;;8.98;2.55;;;24.30;64.50;;;;;;4989865;28;89762;-83
2023/09/06 08:31:01;;;;;;;5.93;2.90;;;24.30;64.50;;;;;;4991174;28;87250;-84
2023/09/06 08:33:26;;;;;;;7.53;2.47;;;24.30;64.50;;;;;;4990129;28;87958;-85
2023/09/06 08:35:52;;;;;;;6.50;2.30;;;24.30;64.50;;;;;;4990035;28;86716;-84
2023/09/06 08:38:18;;;;;;;8.40;2.70;;;24.30;64.40;;;;;;4989768;28;87649;-84
2023/09/06 08:40:43;;;;;;;4.57;2.55;;;24.30;64.40;;;;;;4990711;28;87355;-83
2023/09/06 08:43:10;;;;;;;6.80;2.42;;;24.30;64.00;;;;;;4995116;28;88290;-83
2023/09/06 08:45:37;;;;;;;4.30;1.92;;;24.30;64.20;;;;;;4991167;28;87708;-88
2023/09/06 08:48:03;;;;;;;6.90;2.75;;;24.40;64.30;;;;;;4987430;28;89257;-84
2023/09/06 08:50:32;;;;;;;10.75;2.40;;;24.40;64.50;;;;;;4987751;28;88496;-84
2023/09/06 08:53:00;;;;;;;9.18;3.20;;;24.40;64.40;;;;;;4971943;28;87615;-84
2023/09/06 08:55:27;;;;;;;5.70;2.58;;;24.40;64.70;;;;;;4971115;28;89491;-86
2023/09/06 08:57:53;;;;;;;4.47;2.90;;;24.40;64.90;;;;;;4991209;28;88117;-87
2023/09/06 09:00:20;;;;;;;6.57;2.85;;;24.30;65.10;;;;;;4991810;28;87801;-88
2023/09/06 09:02:46;;;;;;;5.03;2.37;;;24.40;65.10;;;;;;4989829;28;88109;-90
2023/09/06 09:05:13;;;;;;;6.63;3.00;;;24.40;65.20;;;;;;4969881;28;88731;-84
2023/09/06 09:07:38;;;;;;;6.20;3.25;;;24.30;65.00;;;;;;4988126;28;88703;-86
2023/09/06 09:10:09;;;;;;;11.82;3.03;;;24.40;65.20;;;;;;4970421;28;92020;-84
2023/09/06 09:12:37;;;;;;;8.52;2.95;;;24.40;65.20;;;;;;4986295;28;87467;-89
2023/09/06 09:15:04;;;;;;;8.65;2.70;;;24.40;65.70;;;;;;4987700;28;87187;-86
2023/09/06 09:17:30;;;;;;;4.80;2.50;;;24.40;65.60;;;;;;4985846;28;90518;-84
2023/09/06 09:19:58;;;;;;;5.80;3.30;;;24.30;65.60;;;;;;4986688;28;87770;-85
2023/09/06 09:22:30;;;;;;;8.77;2.70;;;24.40;65.80;;;;;;4990070;28;87326;-84
2023/09/06 09:25:04;;;;;;;5.32;3.10;;;24.40;65.60;;;;;;4988553;28;86884;-83
2023/09/06 09:27:32;;;;;;;9.15;2.88;;;24.40;65.90;;;;;;4988866;28;88511;-84
2023/09/06 09:30:01;;;;;;;6.45;2.97;;;24.40;65.90;;;;;;4988899;28;87846;-83
2023/09/06 09:32:28;;;;;;;7.45;3.20;;;24.40;66.00;;;;;;4989221;28;87953;-84
2023/09/06 09:34:54;;;;;;;6.88;2.97;;;24.40;65.90;;;;;;4988530;28;87424;-84
2023/09/06 09:37:21;;;;;;;5.68;3.42;;;24.40;65.80;;;;;;4989836;28;88653;-84
2023/09/06 09:39:47;;;;;;;4.45;2.60;;;24.40;65.90;;;;;;4989594;28;88030;-85
2023/09/06 09:42:13;;;;;;;4.55;2.45;;;24.40;65.70;;;;;;4992281;28;87498;-83
2023/09/06 09:44:40;;;;;;;4.45;2.83;;;24.40;65.90;;;;;;4991100;28;88353;-85
2023/09/06 09:47:12;;;;;;;4.78;2.65;;;24.40;65.50;;;;;;4989611;28;87736;-85
2023/09/06 09:49:42;;;;;;;5.57;3.10;;;24.40;65.60;;;;;;4989096;28;87625;-85
2023/09/06 09:52:11;;;;;;;6.15;2.65;;;24.40;65.60;;;;;;4988834;28;88035;-84
2023/09/06 09:54:42;;;;;;;4.57;2.72;;;24.40;65.60;;;;;;4989604;28;87449;-87
2023/09/06 09:57:09;;;;;;;4.78;2.45;;;24.40;65.40;;;;;;4967236;28;90396;-85
2023/09/06 09:59:37;;;;;;;3.88;2.40;;;24.40;65.40;;;;;;4969477;28;88933;-84
2023/09/06 10:02:05;;;;;;;6.87;2.67;;;24.40;65.40;;;;;;4969565;28;87386;-85
2023/09/06 10:04:36;;;;;;;3.90;2.30;;;24.40;65.40;;;;;;4966581;28;87696;-84
2023/09/06 10:07:04;;;;;;;4.60;2.45;;;24.30;65.10;;;;;;4967855;28;89094;-84
2023/09/06 10:09:32;;;;;;;3.97;2.50;;;24.30;65.50;;;;;;4969424;28;87848;-84
2023/09/06 10:12:00;;;;;;;5.75;3.10;;;24.30;65.50;;;;;;4969129;28;88157;-83
2023/09/06 10:14:27;;;;;;;5.28;2.55;;;24.30;65.40;;;;;;4968142;28;87223;-84
2023/09/06 10:16:53;;;;;;;3.90;2.28;;;24.30;65.40;;;;;;4968499;28;87971;-84
2023/09/06 10:19:22;;;;;;;3.65;2.00;;;24.30;65.50;;;;;;4968923;28;87785;-85
2023/09/06 10:21:48;;;;;;;3.97;2.20;;;24.30;65.50;;;;;;4970089;28;88552;-83
2023/09/06 10:24:18;;;;;;;4.82;2.58;;;24.30;65.60;;;;;;4967423;28;87479;-84
2023/09/06 10:26:46;;;;;;;3.45;2.38;;;24.30;65.70;;;;;;4969102;28;88078;-85
2023/09/06 10:29:19;;;;;;;3.65;2.08;;;24.30;65.60;;;;;;4968539;28;87735;-84
2023/09/06 10:31:51;;;;;;;6.10;2.42;;;24.30;65.70;;;;;;4968794;28;87742;-85
2023/09/06 10:34:20;;;;;;;7.35;2.55;;;24.30;65.50;;;;;;4968000;28;87645;-84
2023/09/06 10:36:57;;;;;;;3.90;1.90;;;24.30;65.70;;;;;;4968014;28;88279;-85
2023/09/06 10:39:25;;;;;;;3.83;2.00;;;24.40;65.50;;;;;;4968152;28;86745;-84
2023/09/06 10:42:11;;;;;;;3.60;2.53;;;24.40;65.20;;;;;;4968377;28;87556;-86
2023/09/06 10:44:56;;;;;;;4.35;2.22;;;24.50;65.60;;;;;;4958844;28;89310;-85
2023/09/06 10:47:35;;;;;;;3.97;2.55;;;24.50;65.70;;;;;;4966478;28;88983;-84
2023/09/06 10:50:13;;;;;;;2.88;2.20;;;24.60;66.30;;;;;;4973251;28;88265;-86
2023/09/06 10:52:43;;;;;;;6.13;2.20;;;24.60;66.10;;;;;;4984173;28;88061;-85
2023/09/06 10:55:18;;;;;;;5.03;2.50;;;24.60;65.90;;;;;;4967294;28;88930;-86
2023/09/06 10:57:51;;;;;;;6.95;2.50;;;24.60;66.10;;;;;;4985418;28;92411;-86
2023/09/06 11:00:19;;;;;;;3.90;2.60;;;24.70;66.60;;;;;;4984137;28;88585;-85
2023/09/06 11:03:08;;;;;;;4.22;2.47;;;24.70;66.50;;;;;;4985934;28;88681;-86
2023/09/06 11:05:37;;;;;;;4.75;2.20;;;24.80;66.10;;;;;;4976624;28;87369;-86
2023/09/06 11:08:04;;;;;;;3.97;2.40;;;24.80;66.20;;;;;;4986618;28;87635;-85
2023/09/06 11:10:30;;;;;;;4.85;2.28;;;24.80;66.00;;;;;;4987747;28;87445;-86
2023/09/06 11:12:57;;;;;;;6.88;2.22;;;24.90;66.20;;;;;;4987902;28;88458;-83
2023/09/06 11:15:24;;;;;;;6.57;2.78;;;24.90;66.20;;;;;;4981695;28;88230;-83
2023/09/06 11:17:59;;;;;;;7.95;2.45;;;25.00;66.10;;;;;;4964815;28;91086;-86
2023/09/06 11:20:24;;;;;;;4.85;2.30;;;25.00;66.20;;;;;;4967971;28;89480;-83
2023/09/06 11:22:52;;;;;;;5.43;3.00;;;25.00;66.00;;;;;;4984507;28;87177;-82
2023/09/06 11:25:23;;;;;;;8.68;2.83;;;25.00;65.90;;;;;;4987881;28;87607;-84
2023/09/06 11:27:50;;;;;;;12.02;3.15;;;25.10;66.20;;;;;;4968063;28;90386;-83
2023/09/06 11:30:18;;;;;;;5.60;2.65;;;25.10;66.20;;;;;;4986667;28;87724;-85
2023/09/06 11:32:45;;;;;;;5.82;2.60;;;25.10;66.30;;;;;;4967375;28;88044;-83
2023/09/06 11:35:13;;;;;;;9.80;2.70;;;25.10;66.20;;;;;;4987982;28;87444;-84
2023/09/06 11:37:46;;;;;;;4.18;2.20;;;25.10;66.20;;;;;;4985395;28;88538;-84
2023/09/06 11:40:15;;;;;;;4.60;3.10;;;25.10;66.30;;;;;;4986889;28;88595;-84
2023/09/06 11:42:52;;;;;;;8.73;2.53;;;25.10;66.40;;;;;;4986409;28;88065;-84
2023/09/06 11:45:20;;;;;;;6.38;2.58;;;25.20;66.30;;;;;;4985681;28;87321;-84
2023/09/06 11:47:46;;;;;;;6.50;2.75;;;25.20;66.00;;;;;;4986452;28;87992;-83
2023/09/06 11:50:18;;;;;;;6.32;2.67;;;25.20;65.90;;;;;;4985267;28;88050;-85
2023/09/06 11:52:49;;;;;;;4.90;2.35;;;25.20;65.80;;;;;;4987321;28;88139;-84
2023/09/06 11:55:17;;;;;;;9.10;3.20;;;25.20;65.60;;;;;;4987345;28;87322;-87
2023/09/06 11:57:50;;;;;;;6.68;2.85;;;25.10;65.40;;;;;;4987180;28;91952;-84
2023/09/06 12:00:27;;;;;;;9.25;2.97;;;25.10;65.10;;;;;;4985605;28;87540;-86
2023/09/06 12:02:54;;;;;;;4.63;2.50;;;25.10;65.20;;;;;;4985079;28;88237;-86
2023/09/06 12:05:27;;;;;;;6.00;2.40;;;25.10;65.50;;;;;;4985592;28;87645;-87
2023/09/06 12:07:56;;;;;;;7.18;2.42;;;25.10;65.60;;;;;;4969744;28;89294;-85
2023/09/06 12:10:22;;;;;;;;;;;25.10;65.30;;;;;;4988099;28;87493;-85
2023/09/06 12:12:49;;;;;;;9.80;2.70;;;25.10;65.40;;;;;;4992198;28;87394;-83
2023/09/06 12:15:20;;;;;;;3.08;2.17;;;25.20;65.40;;;;;;4988589;28;87605;-84
2023/09/06 12:17:49;;;;;;;5.53;2.33;;;25.20;65.20;;;;;;4989165;28;87479;-84
2023/09/06 12:20:19;;;;;;;3.90;2.67;;;25.20;65.20;;;;;;4986028;28;86815;-84
2023/09/06 12:22:48;;;;;;;4.57;2.20;;;25.20;65.10;;;;;;4989042;28;87506;-84
2023/09/06 12:25:18;;;;;;;2.85;2.00;;;25.20;64.90;;;;;;4988433;28;87932;-83
2023/09/06 12:27:45;;;;;;;3.85;2.47;;;25.20;65.00;;;;;;4988036;28;93507;-83
2023/09/06 12:30:13;;;;;;;3.42;2.47;;;25.20;64.80;;;;;;4988817;28;88988;-84
2023/09/06 12:32:40;;;;;;;5.97;3.13;;;25.20;65.00;;;;;;4989753;28;88208;-84
2023/09/06 12:35:10;;;;;;;4.35;2.45;;;25.20;65.00;;;;;;4987489;28;88633;-83
2023/09/06 12:37:37;;;;;;;4.32;2.30;;;25.20;64.80;;;;;;4970645;28;89099;-84
2023/09/06 12:40:10;;;;;;;4.03;2.67;;;25.20;65.20;;;;;;4980195;28;88580;-84
2023/09/06 12:42:43;;;;;;;3.30;2.33;;;25.20;65.40;;;;;;4982073;28;88280;-83
2023/09/06 12:45:16;;;;;;;7.25;2.80;;;25.20;65.60;;;;;;4984709;28;86630;-84
2023/09/06 12:47:42;;;;;;;5.10;2.90;;;25.10;65.30;;;;;;4970911;28;88360;-83
2023/09/06 12:50:08;;;;;;;7.43;2.95;;;25.20;65.30;;;;;;4985469;28;90257;-84